sensor_id;sensor_type;location;lat;lon;timestamp;pressure;altitude;pressure_sealevel;temperature;humidity
40992;BME280;29633;49.168;9.848;2023-08-24T00:02:06;97101.22;;;25.82;60.77
40992;BME280;29633;49.168;9.848;2023-08-24T00:04:33;97100.44;;;25.75;61.02
40992;BME280;29633;49.168;9.848;2023-08-24T00:06:59;97099.00;;;25.72;61.12
40992;BME280;29633;49.168;9.848;2023-08-24T00:09:26;97100.88;;;25.65;61.27
40992;BME280;29633;49.168;9.848;2023-08-24T00:11:52;97089.69;;;25.57;61.29
40992;BME280;29633;49.168;9.848;2023-08-24T00:14:18;97091.09;;;25.59;61.06
40992;BME280;29633;49.168;9.848;2023-08-24T00:16:44;97088.03;;;25.56;61.04
40992;BME280;29633;49.168;9.848;2023-08-24T00:19:10;97083.34;;;25.51;61.28
40992;BME280;29633;49.168;9.848;2023-08-24T00:21:36;97089.88;;;25.48;61.38
40992;BME280;29633;49.168;9.848;2023-08-24T00:24:02;97094.16;;;25.50;61.42
40992;BME280;29633;49.168;9.848;2023-08-24T00:26:27;97099.66;;;25.48;61.65
40992;BME280;29633;49.168;9.848;2023-08-24T00:28:53;97095.59;;;25.45;61.65
40992;BME280;29633;49.168;9.848;2023-08-24T00:31:19;97087.44;;;25.40;61.67
40992;BME280;29633;49.168;9.848;2023-08-24T00:33:45;97089.91;;;25.35;61.96
40992;BME280;29633;49.168;9.848;2023-08-24T00:36:10;97085.81;;;25.33;61.76
40992;BME280;29633;49.168;9.848;2023-08-24T00:38:36;97086.63;;;25.33;61.80
40992;BME280;29633;49.168;9.848;2023-08-24T00:41:02;97086.88;;;25.32;61.74
40992;BME280;29633;49.168;9.848;2023-08-24T00:43:28;97082.16;;;25.27;61.86
40992;BME280;29633;49.168;9.848;2023-08-24T00:45:59;97072.78;;;25.18;62.07
40992;BME280;29633;49.168;9.848;2023-08-24T00:48:26;97068.72;;;25.16;61.87
40992;BME280;29633;49.168;9.848;2023-08-24T00:50:59;97061.78;;;25.08;62.07
40992;BME280;29633;49.168;9.848;2023-08-24T00:53:25;97055.69;;;24.94;62.14
40992;BME280;29633;49.168;9.848;2023-08-24T00:55:52;97058.97;;;24.90;62.30
40992;BME280;29633;49.168;9.848;2023-08-24T00:58:19;97050.16;;;24.83;62.52
40992;BME280;29633;49.168;9.848;2023-08-24T01:00:45;97060.19;;;24.81;62.77
40992;BME280;29633;49.168;9.848;2023-08-24T01:03:11;97062.59;;;24.82;62.76
40992;BME280;29633;49.168;9.848;2023-08-24T01:05:37;97056.91;;;24.79;62.71
40992;BME280;29633;49.168;9.848;2023-08-24T01:08:03;97061.38;;;24.72;63.00
40992;BME280;29633;49.168;9.848;2023-08-24T01:10:50;97068.75;;;24.70;63.13
40992;BME280;29633;49.168;9.848;2023-08-24T01:13:58;97063.44;;;24.70;62.76
40992;BME280;29633;49.168;9.848;2023-08-24T01:16:29;97051.19;;;24.69;63.15
40992;BME280;29633;49.168;9.848;2023-08-24T01:19:00;97052.00;;;24.69;62.89
40992;BME280;29633;49.168;9.848;2023-08-24T01:21:28;97041.81;;;24.73;63.09
40992;BME280;29633;49.168;9.848;2023-08-24T01:24:14;97048.94;;;24.79;62.90
40992;BME280;29633;49.168;9.848;2023-08-24T01:26:43;97037.31;;;24.80;62.94
40992;BME280;29633;49.168;9.848;2023-08-24T01:29:09;97035.69;;;24.79;63.25
40992;BME280;29633;49.168;9.848;2023-08-24T01:31:35;97040.56;;;24.82;63.33
40992;BME280;29633;49.168;9.848;2023-08-24T01:34:01;97045.88;;;24.82;63.42
40992;BME280;29633;49.168;9.848;2023-08-24T01:36:27;97040.56;;;24.82;63.06
40992;BME280;29633;49.168;9.848;2023-08-24T01:41:46;97036.91;;;24.83;63.31
40992;BME280;29633;49.168;9.848;2023-08-24T01:44:19;97035.09;;;24.83;63.34
40992;BME280;29633;49.168;9.848;2023-08-24T01:46:48;97042.66;;;24.86;63.28
40992;BME280;29633;49.168;9.848;2023-08-24T01:49:17;97044.47;;;24.86;63.42
40992;BME280;29633;49.168;9.848;2023-08-24T01:51:44;97040.22;;;24.85;63.41
40992;BME280;29633;49.168;9.848;2023-08-24T01:54:12;97042.44;;;24.88;63.45
40992;BME280;29633;49.168;9.848;2023-08-24T01:56:38;97038.34;;;24.79;63.59
40992;BME280;29633;49.168;9.848;2023-08-24T01:59:04;97035.09;;;24.70;63.39
40992;BME280;29633;49.168;9.848;2023-08-24T02:01:29;97039.16;;;24.73;63.49
40992;BME280;29633;49.168;9.848;2023-08-24T02:03:55;97040.59;;;24.75;63.49
40992;BME280;29633;49.168;9.848;2023-08-24T02:06:21;97037.75;;;24.77;63.36
40992;BME280;29633;49.168;9.848;2023-08-24T02:08:47;97040.81;;;24.74;63.61
40992;BME280;29633;49.168;9.848;2023-08-24T02:11:13;97047.13;;;24.73;63.67
40992;BME280;29633;49.168;9.848;2023-08-24T02:13:38;97051.19;;;24.75;63.67
40992;BME280;29633;49.168;9.848;2023-08-24T02:16:07;97058.94;;;24.77;63.44
40992;BME280;29633;49.168;9.848;2023-08-24T02:18:34;97060.59;;;24.78;63.42
40992;BME280;29633;49.168;9.848;2023-08-24T02:21:00;97055.06;;;24.79;63.78
40992;BME280;29633;49.168;9.848;2023-08-24T02:23:26;97060.38;;;24.79;63.61
40992;BME280;29633;49.168;9.848;2023-08-24T02:25:51;97060.19;;;24.74;63.65
40992;BME280;29633;49.168;9.848;2023-08-24T02:28:17;97062.22;;;24.72;63.55
40992;BME280;29633;49.168;9.848;2023-08-24T02:30:43;97051.38;;;24.67;63.63
40992;BME280;29633;49.168;9.848;2023-08-24T02:33:09;97048.53;;;24.69;63.80
40992;BME280;29633;49.168;9.848;2023-08-24T02:35:34;97041.59;;;24.68;63.50
40992;BME280;29633;49.168;9.848;2023-08-24T02:38:00;97045.69;;;24.64;63.66
40992;BME280;29633;49.168;9.848;2023-08-24T02:40:26;97050.56;;;24.60;63.87
40992;BME280;29633;49.168;9.848;2023-08-24T02:42:51;97056.50;;;24.56;63.66
40992;BME280;29633;49.168;9.848;2023-08-24T02:45:17;97051.81;;;24.51;63.97
40992;BME280;29633;49.168;9.848;2023-08-24T02:47:43;97048.75;;;24.47;63.71
40992;BME280;29633;49.168;9.848;2023-08-24T02:50:09;97052.22;;;24.48;63.88
40992;BME280;29633;49.168;9.848;2023-08-24T02:52:35;97044.06;;;24.49;63.94
40992;BME280;29633;49.168;9.848;2023-08-24T02:55:01;97047.53;;;24.50;63.86
40992;BME280;29633;49.168;9.848;2023-08-24T02:57:27;97049.56;;;24.48;64.24
40992;BME280;29633;49.168;9.848;2023-08-24T02:59:53;97039.56;;;24.43;63.72
40992;BME280;29633;49.168;9.848;2023-08-24T03:02:19;97033.69;;;24.41;64.25
40992;BME280;29633;49.168;9.848;2023-08-24T03:04:45;97024.69;;;24.42;64.26
40992;BME280;29633;49.168;9.848;2023-08-24T03:07:10;97023.47;;;24.45;64.04
40992;BME280;29633;49.168;9.848;2023-08-24T03:09:36;97023.47;;;24.38;64.19
40992;BME280;29633;49.168;9.848;2023-08-24T03:12:02;97023.06;;;24.28;64.20
40992;BME280;29633;49.168;9.848;2023-08-24T03:14:28;97027.94;;;24.25;64.06
40992;BME280;29633;49.168;9.848;2023-08-24T03:16:54;97027.94;;;24.18;64.21
40992;BME280;29633;49.168;9.848;2023-08-24T03:19:20;97021.78;;;24.11;64.48
40992;BME280;29633;49.168;9.848;2023-08-24T03:21:46;97022.19;;;24.08;64.41
40992;BME280;29633;49.168;9.848;2023-08-24T03:24:11;97016.69;;;24.10;64.34
40992;BME280;29633;49.168;9.848;2023-08-24T03:26:37;97008.34;;;24.13;64.21
40992;BME280;29633;49.168;9.848;2023-08-24T03:29:03;97007.72;;;24.11;64.62
40992;BME280;29633;49.168;9.848;2023-08-24T03:31:29;97013.03;;;24.11;64.57
40992;BME280;29633;49.168;9.848;2023-08-24T03:33:54;97024.25;;;24.13;64.48
40992;BME280;29633;49.168;9.848;2023-08-24T03:36:20;97017.75;;;24.15;64.39
40992;BME280;29633;49.168;9.848;2023-08-24T03:38:46;97008.78;;;24.16;64.36
40992;BME280;29633;49.168;9.848;2023-08-24T03:41:12;97013.69;;;24.19;64.42
40992;BME280;29633;49.168;9.848;2023-08-24T03:43:38;97005.09;;;24.17;64.43
40992;BME280;29633;49.168;9.848;2023-08-24T03:46:04;97000.84;;;24.16;64.54
40992;BME280;29633;49.168;9.848;2023-08-24T03:48:32;96994.09;;;24.14;64.73
40992;BME280;29633;49.168;9.848;2023-08-24T03:50:58;97000.00;;;24.09;64.66
40992;BME280;29633;49.168;9.848;2023-08-24T03:53:24;96994.28;;;24.12;64.82
40992;BME280;29633;49.168;9.848;2023-08-24T03:55:54;97005.06;;;24.11;64.39
40992;BME280;29633;49.168;9.848;2023-08-24T03:58:20;97003.66;;;24.08;64.74
40992;BME280;29633;49.168;9.848;2023-08-24T04:00:46;97003.88;;;24.13;64.20
40992;BME280;29633;49.168;9.848;2023-08-24T04:03:12;96997.13;;;24.11;64.51
40992;BME280;29633;49.168;9.848;2023-08-24T04:05:38;96984.88;;;24.10;64.72
40992;BME280;29633;49.168;9.848;2023-08-24T04:08:04;96990.00;;;24.11;64.43
40992;BME280;29633;49.168;9.848;2023-08-24T04:10:30;96982.47;;;24.08;64.86
40992;BME280;29633;49.168;9.848;2023-08-24T04:12:56;96981.81;;;24.06;64.37
40992;BME280;29633;49.168;9.848;2023-08-24T04:15:22;96977.56;;;24.05;64.42
40992;BME280;29633;49.168;9.848;2023-08-24T04:17:48;96982.88;;;24.05;64.54
40992;BME280;29633;49.168;9.848;2023-08-24T04:20:14;96972.06;;;24.07;64.48
40992;BME280;29633;49.168;9.848;2023-08-24T04:22:42;96975.53;;;24.07;64.56
40992;BME280;29633;49.168;9.848;2023-08-24T04:25:10;96974.94;;;24.05;64.73
40992;BME280;29633;49.168;9.848;2023-08-24T04:27:37;96975.72;;;24.06;64.72
40992;BME280;29633;49.168;9.848;2023-08-24T04:30:02;96992.44;;;24.06;64.65
40992;BME280;29633;49.168;9.848;2023-08-24T04:32:29;96990.19;;;24.03;64.69
40992;BME280;29633;49.168;9.848;2023-08-24T04:34:54;96985.09;;;24.01;64.88
40992;BME280;29633;49.168;9.848;2023-08-24T04:37:20;96982.66;;;24.00;64.95
40992;BME280;29633;49.168;9.848;2023-08-24T04:39:46;96978.16;;;24.00;64.88
40992;BME280;29633;49.168;9.848;2023-08-24T04:42:12;96981.22;;;24.04;64.90
40992;BME280;29633;49.168;9.848;2023-08-24T04:44:38;96979.00;;;24.08;65.10
40992;BME280;29633;49.168;9.848;2023-08-24T04:47:04;96974.94;;;24.05;64.95
40992;BME280;29633;49.168;9.848;2023-08-24T04:49:33;96968.41;;;24.08;65.15
40992;BME280;29633;49.168;9.848;2023-08-24T04:51:58;96977.56;;;24.12;64.94
40992;BME280;29633;49.168;9.848;2023-08-24T04:54:24;96972.72;;;24.15;65.00
40992;BME280;29633;49.168;9.848;2023-08-24T04:56:50;96963.34;;;24.19;64.68
40992;BME280;29633;49.168;9.848;2023-08-24T04:59:15;96966.41;;;24.23;64.76
40992;BME280;29633;49.168;9.848;2023-08-24T05:01:41;96964.56;;;24.23;64.80
40992;BME280;29633;49.168;9.848;2023-08-24T05:04:07;96956.22;;;24.26;64.60
40992;BME280;29633;49.168;9.848;2023-08-24T05:06:33;96954.56;;;24.32;64.63
40992;BME280;29633;49.168;9.848;2023-08-24T05:08:58;96957.84;;;24.34;64.46
40992;BME280;29633;49.168;9.848;2023-08-24T05:11:28;96948.66;;;24.36;64.24
40992;BME280;29633;49.168;9.848;2023-08-24T05:13:57;96945.00;;;24.37;64.54
40992;BME280;29633;49.168;9.848;2023-08-24T05:16:22;96940.28;;;24.39;64.75
40992;BME280;29633;49.168;9.848;2023-08-24T05:18:48;96949.66;;;24.42;64.73
40992;BME280;29633;49.168;9.848;2023-08-24T05:21:14;96943.97;;;24.45;64.40
40992;BME280;29633;49.168;9.848;2023-08-24T05:23:40;96949.69;;;24.48;64.51
40992;BME280;29633;49.168;9.848;2023-08-24T05:26:06;96950.28;;;24.50;64.38
40992;BME280;29633;49.168;9.848;2023-08-24T05:28:32;96944.16;;;24.50;64.54
40992;BME280;29633;49.168;9.848;2023-08-24T05:30:58;96940.69;;;24.49;64.46
40992;BME280;29633;49.168;9.848;2023-08-24T05:33:25;96939.06;;;24.48;64.61
40992;BME280;29633;49.168;9.848;2023-08-24T05:35:52;96933.56;;;24.50;64.65
40992;BME280;29633;49.168;9.848;2023-08-24T05:38:18;96931.31;;;24.54;64.70
40992;BME280;29633;49.168;9.848;2023-08-24T05:40:47;96938.84;;;24.57;64.82
40992;BME280;29633;49.168;9.848;2023-08-24T05:43:13;96933.34;;;24.58;64.60
40992;BME280;29633;49.168;9.848;2023-08-24T05:45:40;96934.16;;;24.59;64.63
40992;BME280;29633;49.168;9.848;2023-08-24T05:48:06;96932.31;;;24.59;64.61
40992;BME280;29633;49.168;9.848;2023-08-24T05:50:33;96934.97;;;24.59;64.79
40992;BME280;29633;49.168;9.848;2023-08-24T05:52:59;96932.91;;;24.61;64.65
40992;BME280;29633;49.168;9.848;2023-08-24T05:55:25;96926.59;;;24.62;64.80
40992;BME280;29633;49.168;9.848;2023-08-24T05:57:51;96915.00;;;24.63;64.76
40992;BME280;29633;49.168;9.848;2023-08-24T06:00:17;96908.66;;;24.64;64.45
40992;BME280;29633;49.168;9.848;2023-08-24T06:02:43;96905.38;;;24.69;64.44
40992;BME280;29633;49.168;9.848;2023-08-24T06:05:09;96904.13;;;24.71;64.58
40992;BME280;29633;49.168;9.848;2023-08-24T06:07:35;96905.16;;;24.77;64.56
40992;BME280;29633;49.168;9.848;2023-08-24T06:10:02;96909.63;;;24.83;64.43
40992;BME280;29633;49.168;9.848;2023-08-24T06:12:28;96903.50;;;24.89;64.44
40992;BME280;29633;49.168;9.848;2023-08-24T06:14:53;96910.41;;;24.96;64.53
40992;BME280;29633;49.168;9.848;2023-08-24T06:17:20;96901.41;;;25.04;64.37
40992;BME280;29633;49.168;9.848;2023-08-24T06:19:46;96907.28;;;25.13;64.19
40992;BME280;29633;49.168;9.848;2023-08-24T06:22:11;96899.50;;;25.18;64.26
40992;BME280;29633;49.168;9.848;2023-08-24T06:24:37;96899.50;;;25.24;64.19
40992;BME280;29633;49.168;9.848;2023-08-24T06:27:03;96909.25;;;25.30;64.14
40992;BME280;29633;49.168;9.848;2023-08-24T06:29:29;96911.03;;;25.36;64.29
40992;BME280;29633;49.168;9.848;2023-08-24T06:31:55;96920.00;;;25.42;63.88
40992;BME280;29633;49.168;9.848;2023-08-24T06:34:21;96917.50;;;25.47;63.79
40992;BME280;29633;49.168;9.848;2023-08-24T06:36:47;96917.53;;;25.54;63.91
40992;BME280;29633;49.168;9.848;2023-08-24T06:39:13;96920.97;;;25.61;63.94
40992;BME280;29633;49.168;9.848;2023-08-24T06:41:39;96922.56;;;25.68;63.93
40992;BME280;29633;49.168;9.848;2023-08-24T06:44:04;96924.94;;;25.76;63.97
40992;BME280;29633;49.168;9.848;2023-08-24T06:46:31;96923.84;;;25.84;64.08
40992;BME280;29633;49.168;9.848;2023-08-24T06:48:56;96925.44;;;25.91;64.06
40992;BME280;29633;49.168;9.848;2023-08-24T06:51:24;96932.34;;;25.99;63.59
40992;BME280;29633;49.168;9.848;2023-08-24T06:53:50;96946.97;;;26.08;63.87
40992;BME280;29633;49.168;9.848;2023-08-24T06:56:16;96954.50;;;26.18;63.69
40992;BME280;29633;49.168;9.848;2023-08-24T06:58:43;96966.72;;;26.25;63.55
40992;BME280;29633;49.168;9.848;2023-08-24T07:01:09;96968.06;;;26.34;63.66
40992;BME280;29633;49.168;9.848;2023-08-24T07:03:36;96978.41;;;26.42;63.42
40992;BME280;29633;49.168;9.848;2023-08-24T07:06:02;96990.84;;;26.49;63.11
40992;BME280;29633;49.168;9.848;2023-08-24T07:08:29;97000.00;;;26.53;63.20
40992;BME280;29633;49.168;9.848;2023-08-24T07:10:54;97001.00;;;26.58;63.29
40992;BME280;29633;49.168;9.848;2023-08-24T07:13:20;97000.31;;;26.63;63.25
40992;BME280;29633;49.168;9.848;2023-08-24T07:15:46;97005.81;;;26.68;63.04
40992;BME280;29633;49.168;9.848;2023-08-24T07:18:11;97013.97;;;26.73;63.01
40992;BME280;29633;49.168;9.848;2023-08-24T07:20:38;97006.94;;;26.78;63.01
40992;BME280;29633;49.168;9.848;2023-08-24T07:23:03;97005.28;;;26.84;62.89
40992;BME280;29633;49.168;9.848;2023-08-24T07:25:29;96994.34;;;26.92;62.99
40992;BME280;29633;49.168;9.848;2023-08-24T07:27:56;96981.78;;;26.99;63.02
40992;BME280;29633;49.168;9.848;2023-08-24T07:30:27;96977.81;;;27.08;62.85
40992;BME280;29633;49.168;9.848;2023-08-24T07:32:53;96975.06;;;27.15;62.97
40992;BME280;29633;49.168;9.848;2023-08-24T07:35:20;96974.53;;;27.24;62.52
40992;BME280;29633;49.168;9.848;2023-08-24T07:37:49;96974.59;;;27.36;62.55
40992;BME280;29633;49.168;9.848;2023-08-24T07:40:15;96977.56;;;27.46;62.51
40992;BME280;29633;49.168;9.848;2023-08-24T07:42:51;96968.47;;;27.54;62.15
40992;BME280;29633;49.168;9.848;2023-08-24T07:45:20;96964.81;;;27.66;61.87
40992;BME280;29633;49.168;9.848;2023-08-24T07:47:46;96960.56;;;27.77;61.68
40992;BME280;29633;49.168;9.848;2023-08-24T07:50:12;96951.81;;;27.88;61.65
40992;BME280;29633;49.168;9.848;2023-08-24T07:52:38;96941.41;;;27.98;61.64
40992;BME280;29633;49.168;9.848;2023-08-24T07:55:05;96936.94;;;28.10;61.82
40992;BME280;29633;49.168;9.848;2023-08-24T07:57:33;96928.16;;;28.21;61.90
40992;BME280;29633;49.168;9.848;2023-08-24T08:00:02;96926.19;;;28.28;61.20
40992;BME280;29633;49.168;9.848;2023-08-24T08:02:28;96928.50;;;28.36;61.16
40992;BME280;29633;49.168;9.848;2023-08-24T08:04:57;96922.81;;;28.45;61.00
40992;BME280;29633;49.168;9.848;2023-08-24T08:07:28;96909.59;;;28.50;60.81
40992;BME280;29633;49.168;9.848;2023-08-24T08:09:56;96912.72;;;28.58;60.86
40992;BME280;29633;49.168;9.848;2023-08-24T08:12:23;96917.13;;;28.64;60.45
40992;BME280;29633;49.168;9.848;2023-08-24T08:14:49;96922.22;;;28.66;60.40
40992;BME280;29633;49.168;9.848;2023-08-24T08:17:15;96921.56;;;28.70;60.37
40992;BME280;29633;49.168;9.848;2023-08-24T08:19:41;96930.47;;;28.76;60.38
40992;BME280;29633;49.168;9.848;2023-08-24T08:22:06;96919.94;;;28.81;59.94
40992;BME280;29633;49.168;9.848;2023-08-24T08:24:33;96907.75;;;28.85;60.07
40992;BME280;29633;49.168;9.848;2023-08-24T08:26:58;96915.38;;;28.93;60.06
40992;BME280;29633;49.168;9.848;2023-08-24T08:29:24;96920.13;;;29.03;60.28
40992;BME280;29633;49.168;9.848;2023-08-24T08:31:50;96922.75;;;29.14;59.95
40992;BME280;29633;49.168;9.848;2023-08-24T08:34:15;96920.50;;;29.23;59.81
40992;BME280;29633;49.168;9.848;2023-08-24T08:36:41;96922.63;;;29.33;59.65
40992;BME280;29633;49.168;9.848;2023-08-24T08:39:07;96926.84;;;29.45;59.41
40992;BME280;29633;49.168;9.848;2023-08-24T08:41:41;96937.16;;;29.53;59.62
40992;BME280;29633;49.168;9.848;2023-08-24T08:44:07;96939.78;;;29.65;59.24
40992;BME280;29633;49.168;9.848;2023-08-24T08:46:34;96940.31;;;29.78;59.24
40992;BME280;29633;49.168;9.848;2023-08-24T08:49:00;96942.38;;;29.88;59.07
40992;BME280;29633;49.168;9.848;2023-08-24T08:51:27;96936.63;;;29.96;58.96
40992;BME280;29633;49.168;9.848;2023-08-24T08:53:53;96937.88;;;30.05;58.59
40992;BME280;29633;49.168;9.848;2023-08-24T08:56:20;96936.41;;;30.14;58.68
40992;BME280;29633;49.168;9.848;2023-08-24T08:58:47;96940.22;;;30.18;58.27
40992;BME280;29633;49.168;9.848;2023-08-24T09:01:14;96937.06;;;30.21;58.36
40992;BME280;29633;49.168;9.848;2023-08-24T09:03:40;96928.41;;;30.31;57.93
40992;BME280;29633;49.168;9.848;2023-08-24T09:06:06;96933.09;;;30.41;58.24
40992;BME280;29633;49.168;9.848;2023-08-24T09:08:32;96935.72;;;30.52;57.95
40992;BME280;29633;49.168;9.848;2023-08-24T09:11:01;96936.66;;;30.63;57.75
40992;BME280;29633;49.168;9.848;2023-08-24T09:13:29;96941.84;;;30.69;57.75
40992;BME280;29633;49.168;9.848;2023-08-24T09:16:05;96929.59;;;30.73;57.33
40992;BME280;29633;49.168;9.848;2023-08-24T09:18:36;96932.56;;;30.77;57.36
40992;BME280;29633;49.168;9.848;2023-08-24T09:21:11;96935.34;;;30.82;56.92
40992;BME280;29633;49.168;9.848;2023-08-24T09:23:42;96929.03;;;30.93;57.11
40992;BME280;29633;49.168;9.848;2023-08-24T09:26:09;96923.88;;;31.03;57.30
40992;BME280;29633;49.168;9.848;2023-08-24T09:28:35;96926.38;;;31.15;57.03
40992;BME280;29633;49.168;9.848;2023-08-24T09:31:02;96919.88;;;31.28;57.20
40992;BME280;29633;49.168;9.848;2023-08-24T09:33:29;96917.28;;;31.38;57.21
40992;BME280;29633;49.168;9.848;2023-08-24T09:35:55;96912.59;;;31.50;57.29
40992;BME280;29633;49.168;9.848;2023-08-24T09:38:27;96903.66;;;31.61;56.84
40992;BME280;29633;49.168;9.848;2023-08-24T09:40:54;96900.00;;;31.72;56.76
40992;BME280;29633;49.168;9.848;2023-08-24T09:43:21;96896.28;;;31.78;56.51
40992;BME280;29633;49.168;9.848;2023-08-24T09:45:57;96893.69;;;31.88;56.68
40992;BME280;29633;49.168;9.848;2023-08-24T09:48:23;96880.38;;;31.98;56.35
40992;BME280;29633;49.168;9.848;2023-08-24T09:50:52;96877.25;;;32.06;56.01
40992;BME280;29633;49.168;9.848;2023-08-24T09:53:20;96875.16;;;32.13;55.68
40992;BME280;29633;49.168;9.848;2023-08-24T09:55:52;96867.69;;;32.15;55.83
40992;BME280;29633;49.168;9.848;2023-08-24T09:58:21;96862.63;;;32.24;55.83
40992;BME280;29633;49.168;9.848;2023-08-24T10:00:47;96853.00;;;32.28;55.45
40992;BME280;29633;49.168;9.848;2023-08-24T10:03:19;96844.47;;;32.36;55.42
40992;BME280;29633;49.168;9.848;2023-08-24T10:05:52;96830.28;;;32.41;55.26
40992;BME280;29633;49.168;9.848;2023-08-24T10:09:02;96831.09;;;32.46;55.00
40992;BME280;29633;49.168;9.848;2023-08-24T10:11:28;96821.75;;;32.54;55.13
40992;BME280;29633;49.168;9.848;2023-08-24T10:14:21;96816.44;;;32.59;55.02
40992;BME280;29633;49.168;9.848;2023-08-24T10:16:49;96802.50;;;32.67;54.81
40992;BME280;29633;49.168;9.848;2023-08-24T10:19:16;96811.13;;;32.69;54.51
40992;BME280;29633;49.168;9.848;2023-08-24T10:21:43;96804.97;;;32.74;54.52
40992;BME280;29633;49.168;9.848;2023-08-24T10:24:09;96801.19;;;32.75;54.69
40992;BME280;29633;49.168;9.848;2023-08-24T10:26:40;96786.97;;;32.79;54.31
40992;BME280;29633;49.168;9.848;2023-08-24T10:29:07;96789.16;;;32.87;54.32
40992;BME280;29633;49.168;9.848;2023-08-24T10:31:33;96791.56;;;32.89;53.97
40992;BME280;29633;49.168;9.848;2023-08-24T10:34:01;96794.53;;;32.92;54.15
40992;BME280;29633;49.168;9.848;2023-08-24T10:36:27;96795.91;;;33.00;53.94
40992;BME280;29633;49.168;9.848;2023-08-24T10:38:56;96791.38;;;33.05;53.86
40992;BME280;29633;49.168;9.848;2023-08-24T10:41:27;96794.63;;;33.12;54.09
40992;BME280;29633;49.168;9.848;2023-08-24T10:44:05;96788.19;;;33.19;53.62
40992;BME280;29633;49.168;9.848;2023-08-24T10:46:35;96786.06;;;33.26;53.76
40992;BME280;29633;49.168;9.848;2023-08-24T10:49:04;96785.00;;;33.32;53.41
40992;BME280;29633;49.168;9.848;2023-08-24T10:51:30;96786.34;;;33.34;53.57
40992;BME280;29633;49.168;9.848;2023-08-24T10:53:59;96787.94;;;33.40;53.49
40992;BME280;29633;49.168;9.848;2023-08-24T10:56:36;96784.47;;;33.45;53.65
40992;BME280;29633;49.168;9.848;2023-08-24T10:59:17;96782.31;;;33.52;53.66
40992;BME280;29633;49.168;9.848;2023-08-24T11:01:57;96789.59;;;33.56;53.29
40992;BME280;29633;49.168;9.848;2023-08-24T11:04:24;96779.13;;;33.65;53.33
40992;BME280;29633;49.168;9.848;2023-08-24T11:09:23;96766.47;;;33.76;52.92
40992;BME280;29633;49.168;9.848;2023-08-24T11:12:00;96765.13;;;33.83;53.32
40992;BME280;29633;49.168;9.848;2023-08-24T11:14:27;96754.88;;;33.90;53.07
40992;BME280;29633;49.168;9.848;2023-08-24T11:16:59;96748.44;;;33.91;52.83
40992;BME280;29633;49.168;9.848;2023-08-24T11:19:25;96748.44;;;33.96;53.19
40992;BME280;29633;49.168;9.848;2023-08-24T11:21:51;96734.69;;;34.03;53.12
40992;BME280;29633;49.168;9.848;2023-08-24T11:24:18;96734.97;;;34.06;53.02
40992;BME280;29633;49.168;9.848;2023-08-24T11:26:46;96725.81;;;34.07;52.97
40992;BME280;29633;49.168;9.848;2023-08-24T11:29:12;96723.38;;;34.11;52.91
40992;BME280;29633;49.168;9.848;2023-08-24T11:31:39;96722.56;;;34.16;52.85
40992;BME280;29633;49.168;9.848;2023-08-24T11:34:06;96727.41;;;34.19;52.51
40992;BME280;29633;49.168;9.848;2023-08-24T11:36:45;96724.19;;;34.22;52.90
40992;BME280;29633;49.168;9.848;2023-08-24T11:39:19;96712.84;;;34.30;52.84
40992;BME280;29633;49.168;9.848;2023-08-24T11:42:06;96703.13;;;34.34;52.77
40992;BME280;29633;49.168;9.848;2023-08-24T11:44:48;96705.81;;;34.39;52.54
40992;BME280;29633;49.168;9.848;2023-08-24T11:47:15;96697.16;;;34.47;52.49
40992;BME280;29633;49.168;9.848;2023-08-24T11:49:42;96697.41;;;34.50;52.36
40992;BME280;29633;49.168;9.848;2023-08-24T11:52:08;96695.00;;;34.49;52.20
40992;BME280;29633;49.168;9.848;2023-08-24T11:54:35;96693.34;;;34.53;52.69
40992;BME280;29633;49.168;9.848;2023-08-24T11:57:06;96686.03;;;34.58;52.68
40992;BME280;29633;49.168;9.848;2023-08-24T11:59:35;96683.59;;;34.62;52.29
40992;BME280;29633;49.168;9.848;2023-08-24T12:02:03;96682.00;;;34.66;52.30
40992;BME280;29633;49.168;9.848;2023-08-24T12:04:41;96680.59;;;34.74;52.30
40992;BME280;29633;49.168;9.848;2023-08-24T12:07:14;96677.59;;;34.80;52.21
40992;BME280;29633;49.168;9.848;2023-08-24T12:09:41;96673.81;;;34.86;52.51
40992;BME280;29633;49.168;9.848;2023-08-24T12:12:18;96683.22;;;34.89;52.26
40992;BME280;29633;49.168;9.848;2023-08-24T12:14:47;96681.31;;;34.94;51.99
40992;BME280;29633;49.168;9.848;2023-08-24T12:17:15;96676.66;;;35.00;51.80
40992;BME280;29633;49.168;9.848;2023-08-24T12:19:45;96672.84;;;35.06;51.90
40992;BME280;29633;49.168;9.848;2023-08-24T12:22:21;96657.72;;;35.10;52.08
40992;BME280;29633;49.168;9.848;2023-08-24T12:24:47;96656.91;;;35.15;51.96
40992;BME280;29633;49.168;9.848;2023-08-24T12:27:23;96642.38;;;35.16;51.89
40992;BME280;29633;49.168;9.848;2023-08-24T12:29:49;96646.09;;;35.20;51.56
40992;BME280;29633;49.168;9.848;2023-08-24T12:32:17;96641.97;;;35.27;51.60
40992;BME280;29633;49.168;9.848;2023-08-24T12:34:46;96632.53;;;35.30;51.63
40992;BME280;29633;49.168;9.848;2023-08-24T12:37:12;96646.50;;;35.32;51.61
40992;BME280;29633;49.168;9.848;2023-08-24T12:39:39;96627.06;;;35.35;51.68
40992;BME280;29633;49.168;9.848;2023-08-24T12:42:06;96619.53;;;35.37;51.33
40992;BME280;29633;49.168;9.848;2023-08-24T12:44:32;96614.13;;;35.37;50.66
40992;BME280;29633;49.168;9.848;2023-08-24T12:46:59;96620.03;;;35.39;50.23
40992;BME280;29633;49.168;9.848;2023-08-24T12:49:25;96618.94;;;35.40;50.53
40992;BME280;29633;49.168;9.848;2023-08-24T12:51:50;96607.59;;;35.43;50.50
40992;BME280;29633;49.168;9.848;2023-08-24T12:54:16;96601.34;;;35.47;50.16
40992;BME280;29633;49.168;9.848;2023-08-24T12:56:42;96595.88;;;35.52;50.21
40992;BME280;29633;49.168;9.848;2023-08-24T12:59:08;96592.34;;;35.57;50.59
40992;BME280;29633;49.168;9.848;2023-08-24T13:01:34;96586.38;;;35.60;50.63
40992;BME280;29633;49.168;9.848;2023-08-24T13:03:59;96589.06;;;35.60;50.50
40992;BME280;29633;49.168;9.848;2023-08-24T13:06:26;96583.94;;;35.64;50.51
40992;BME280;29633;49.168;9.848;2023-08-24T13:08:53;96583.59;;;35.70;50.54